| time (UTC) | temp F | wind direction | speed MPH | gust MPH | rain 1hr in | rain 24hr in | rain mn in | humidity % | barometer mb |
| 20260509101519 | 69 | 234 | 2.0 | 4.0 | 0.00 | 0.27 | 0.00 | 81 | 1009.3 |
| 20260509101017 | 69 | 230 | 2.0 | 4.0 | 0.00 | 0.30 | 0.00 | 81 | 1009.3 |
| 20260509100535 | 69 | 243 | 1.0 | 4.0 | 0.00 | 0.30 | 0.00 | 80 | 1009.3 |
| 20260509100033 | 70 | 245 | 1.0 | 3.0 | 0.00 | 0.30 | 0.00 | 80 | 1009.2 |
| 20260509095532 | 70 | 297 | 1.0 | 3.0 | 0.00 | 0.30 | 0.00 | 80 | 1009.3 |
| 20260509095029 | 70 | 297 | 1.0 | 3.0 | 0.00 | 0.30 | 0.00 | 79 | 1009.2 |
| 20260509094628 | 70 | 329 | 1.0 | 3.0 | 0.00 | 0.30 | 0.00 | 78 | 1009.0 |
| 20260509094025 | 71 | 359 | 1.0 | 3.0 | 0.00 | 0.30 | 0.00 | 77 | 1008.8 |
| 20260509093523 | 71 | 346 | 1.0 | 4.0 | 0.00 | 0.30 | 0.00 | 76 | 1008.6 |
| 20260509093101 | 72 | 333 | 2.0 | 3.0 | 0.00 | 0.31 | 0.00 | 74 | 1008.5 |
| 20260509092518 | 73 | 328 | 2.0 | 3.0 | 0.00 | 0.31 | 0.00 | 71 | 1008.4 |
| 20260509092016 | 73 | 353 | 2.0 | 5.0 | 0.00 | 0.31 | 0.00 | 68 | 1008.5 |
| 20260509091534 | 73 | 344 | 4.0 | 9.0 | 0.00 | 0.31 | 0.00 | 67 | 1008.5 |
| 20260509091033 | 73 | 1 | 3.0 | 6.0 | 0.00 | 0.31 | 0.00 | 69 | 1008.4 |
| 20260509090531 | 73 | 25 | 3.0 | 5.0 | 0.00 | 0.31 | 0.00 | 73 | 1008.3 |
| 20260509090049 | 72 | 5 | 4.0 | 7.0 | 0.00 | 0.31 | 0.00 | 75 | 1008.3 |
| 20260509085527 | 72 | 3 | 5.0 | 9.0 | 0.00 | 0.31 | 0.00 | 78 | 1008.3 |
| 20260509085026 | 71 | 40 | 6.0 | 16.0 | 0.00 | 0.31 | 0.00 | 82 | 1008.2 |
| 20260509084524 | 70 | 236 | 4.0 | 8.0 | 0.00 | 0.31 | 0.00 | 85 | 1007.2 |
| 20260509084021 | 70 | 208 | 4.0 | 11.0 | 0.00 | 0.31 | 0.00 | 85 | 1006.9 |
| 20260509083519 | 70 | 206 | 3.0 | 8.0 | 0.00 | 0.31 | 0.00 | 84 | 1006.7 |
| 20260509083017 | 70 | 174 | 3.0 | 6.0 | 0.00 | 0.31 | 0.00 | 84 | 1006.7 |
| 20260509082535 | 70 | 128 | 3.0 | 6.0 | 0.00 | 0.31 | 0.00 | 84 | 1006.4 |
| 20260509082033 | 70 | 173 | 3.0 | 7.0 | 0.00 | 0.31 | 0.00 | 84 | 1006.2 |
| 20260509081530 | 70 | 183 | 4.0 | 8.0 | 0.00 | 0.31 | 0.00 | 85 | 1006.2 |
| 20260509081028 | 70 | 196 | 3.0 | 6.0 | 0.00 | 0.31 | 0.00 | 85 | 1006.6 |
| 20260509080526 | 70 | 171 | 3.0 | 6.0 | 0.00 | 0.31 | 0.00 | 85 | 1007.0 |
| 20260509080024 | 70 | 181 | 2.0 | 5.0 | 0.00 | 0.31 | 0.00 | 85 | 1007.6 |
| 20260509075543 | 70 | 234 | 2.0 | 5.0 | 0.00 | 0.31 | 0.00 | 86 | 1008.3 |
| 20260509075020 | 70 | 218 | 3.0 | 8.0 | 0.00 | 0.31 | 0.00 | 86 | 1008.7 |
| 20260509074518 | 70 | 209 | 3.0 | 10.0 | 0.00 | 0.31 | 0.00 | 87 | 1009.0 |
| 20260509074016 | 70 | 216 | 4.0 | 9.0 | 0.00 | 0.31 | 0.00 | 88 | 1009.5 |
| 20260509073534 | 70 | 214 | 4.0 | 10.0 | 0.00 | 0.31 | 0.00 | 88 | 1009.7 |
| 20260509073033 | 70 | 216 | 4.0 | 9.0 | 0.00 | 0.31 | 0.00 | 88 | 1009.6 |
| 20260509072531 | 70 | 220 | 6.0 | 17.0 | 0.00 | 0.31 | 0.00 | 89 | 1009.7 |
| 20260509072029 | 70 | 216 | 8.0 | 15.0 | 0.00 | 0.31 | 0.00 | 89 | 1010.0 |
| 20260509071547 | 70 | 207 | 5.0 | 14.0 | 0.00 | 0.32 | 0.00 | 89 | 1010.1 |
| 20260509071025 | 70 | 217 | 6.0 | 14.0 | 0.00 | 0.36 | 0.00 | 89 | 1010.2 |
| 20260509070543 | 70 | 221 | 5.0 | 10.0 | 0.00 | 0.41 | 0.00 | 89 | 1010.7 |
| 20260509070021 | 70 | 224 | 6.0 | 13.0 | 0.00 | 0.44 | 0.00 | 89 | 1010.8 |
| 20260509065520 | 70 | 218 | 5.0 | 11.0 | 0.00 | 0.50 | 0.00 | 89 | 1010.8 |
| 20260509065017 | 70 | 220 | 6.0 | 11.0 | 0.00 | 0.52 | 0.00 | 90 | 1011.0 |
| 20260509064535 | 69 | 211 | 4.0 | 8.0 | 0.00 | 0.52 | 0.00 | 90 | 1011.0 |
| 20260509064034 | 69 | 219 | 3.0 | 5.0 | 0.00 | 0.52 | 0.00 | 91 | 1011.2 |
| 20260509063531 | 69 | 228 | 2.0 | 5.0 | 0.00 | 0.52 | 0.00 | 90 | 1011.4 |
| 20260509063029 | 69 | 221 | 2.0 | 3.0 | 0.00 | 0.52 | 0.00 | 90 | 1011.4 |
| 20260509062527 | 69 | 217 | 2.0 | 3.0 | 0.00 | 0.52 | 0.00 | 89 | 1011.3 |
| 20260509062025 | 69 | 238 | 1.0 | 3.0 | 0.00 | 0.52 | 0.00 | 89 | 1011.3 |
| 20260509061543 | 70 | 246 | 2.0 | 3.0 | 0.00 | 0.52 | 0.00 | 89 | 1011.4 |
| 20260509061021 | 69 | 247 | 2.0 | 4.0 | 0.00 | 0.52 | 0.00 | 89 | 1011.4 |
| 20260509060519 | 69 | 234 | 2.0 | 4.0 | 0.00 | 0.52 | 0.00 | 89 | 1011.3 |
| 20260509060017 | 69 | 225 | 1.0 | 2.0 | 0.00 | 0.52 | 0.00 | 89 | 1011.3 |
| 20260509055535 | 70 | 304 | 1.0 | 2.0 | 0.00 | 0.52 | 0.00 | 89 | 1011.4 |
| 20260509055033 | 70 | 228 | 1.0 | 3.0 | 0.00 | 0.52 | 0.00 | 88 | 1011.1 |
| 20260509054531 | 70 | 215 | 0.0 | 2.0 | 0.00 | 0.52 | 0.00 | 88 | 1011.1 |
| 20260509054029 | 70 | 15 | 0.0 | 2.0 | 0.00 | 0.52 | 0.00 | 88 | 1011.3 |
| 20260509053528 | 70 | 177 | 0.0 | 2.0 | 0.00 | 0.52 | 0.00 | 87 | 1011.3 |
| 20260509053026 | 70 | 343 | 0.0 | 2.0 | 0.00 | 0.52 | 0.00 | 87 | 1011.7 |
| 20260509052523 | 71 | 84 | 0.0 | 1.0 | 0.00 | 0.52 | 0.00 | 87 | 1011.7 |
| 20260509052042 | 71 | 48 | 3.0 | 4.0 | 0.00 | 0.52 | 0.00 | 86 | 1011.9 |
| 20260509051520 | 71 | 43 | 3.0 | 5.0 | 0.00 | 0.52 | 0.00 | 86 | 1012.0 |
| 20260509051018 | 71 | 29 | 2.0 | 4.0 | 0.00 | 0.52 | 0.00 | 86 | 1011.8 |
| 20260509050517 | 71 | 6 | 3.0 | 7.0 | 0.00 | 0.52 | 0.00 | 86 | 1011.8 |
| 20260509050015 | 71 | 1 | 3.0 | 6.0 | 0.00 | 0.52 | 0.52 | 86 | 1011.8 |
| 20260509045553 | 71 | 36 | 1.0 | 2.0 | 0.00 | 0.52 | 0.52 | 85 | 1011.0 |
| 20260509045031 | 71 | 151 | 0.0 | 2.0 | 0.00 | 0.52 | 0.52 | 85 | 1010.8 |
| 20260509044550 | 71 | 140 | 1.0 | 4.0 | 0.00 | 0.52 | 0.52 | 84 | 1010.7 |
| 20260509044027 | 71 | 180 | 1.0 | 3.0 | 0.00 | 0.52 | 0.52 | 84 | 1010.4 |
| 20260509043525 | 72 | 161 | 1.0 | 2.0 | 0.00 | 0.52 | 0.52 | 84 | 1010.3 |
| 20260509043023 | 72 | 184 | 1.0 | 4.0 | 0.00 | 0.52 | 0.52 | 84 | 1010.2 |
| 20260509042521 | 72 | 180 | 1.0 | 3.0 | 0.00 | 0.52 | 0.52 | 84 | 1010.1 |
| 20260509042019 | 72 | 168 | 1.0 | 4.0 | 0.00 | 0.52 | 0.52 | 84 | 1010.1 |
| 20260509041517 | 72 | 176 | 1.0 | 4.0 | 0.00 | 0.52 | 0.52 | 84 | 1010.1 |
| 20260509041034 | 71 | 189 | 1.0 | 3.0 | 0.00 | 0.52 | 0.52 | 84 | 1010.1 |
| 20260509040532 | 72 | 179 | 1.0 | 4.0 | 0.00 | 0.52 | 0.52 | 84 | 1010.1 |
| 20260509040031 | 72 | 156 | 1.0 | 2.0 | 0.00 | 0.52 | 0.52 | 83 | 1010.3 |
| 20260509035649 | 72 | 164 | 1.0 | 2.0 | 0.00 | 0.52 | 0.52 | 83 | 1010.2 |
| 20260509035026 | 72 | 139 | 0.0 | 2.0 | 0.00 | 0.52 | 0.52 | 82 | 1010.2 |
| 20260509034525 | 72 | 127 | 2.0 | 4.0 | 0.00 | 0.52 | 0.52 | 83 | 1010.5 |
| 20260509034023 | 72 | 117 | 2.0 | 4.0 | 0.00 | 0.52 | 0.52 | 83 | 1010.4 |
| 20260509033521 | 72 | 91 | 2.0 | 5.0 | 0.00 | 0.52 | 0.52 | 83 | 1010.6 |
| 20260509033019 | 72 | 70 | 3.0 | 6.0 | 0.00 | 0.52 | 0.52 | 83 | 1010.7 |
| 20260509032558 | 72 | 64 | 4.0 | 6.0 | 0.00 | 0.52 | 0.52 | 83 | 1010.4 |
| 20260509032015 | 72 | 58 | 3.0 | 5.0 | 0.00 | 0.52 | 0.52 | 82 | 1010.4 |
| 20260509031554 | 72 | 67 | 3.0 | 5.0 | 0.00 | 0.52 | 0.52 | 82 | 1010.2 |
| 20260509031031 | 72 | 104 | 2.0 | 6.0 | 0.00 | 0.52 | 0.52 | 82 | 1009.8 |
| 20260509030529 | 72 | 105 | 1.0 | 4.0 | 0.00 | 0.52 | 0.52 | 82 | 1009.4 |
| 20260509030027 | 72 | 128 | 3.0 | 6.0 | 0.00 | 0.52 | 0.52 | 82 | 1009.0 |
| 20260509025526 | 72 | 161 | 2.0 | 6.0 | 0.00 | 0.52 | 0.52 | 82 | 1009.0 |
| 20260509025024 | 72 | 143 | 2.0 | 6.0 | 0.00 | 0.52 | 0.52 | 81 | 1009.1 |
| 20260509024522 | 72 | 145 | 2.0 | 4.0 | 0.00 | 0.52 | 0.52 | 81 | 1009.1 |
| 20260509024040 | 72 | 150 | 2.0 | 5.0 | 0.00 | 0.52 | 0.52 | 81 | 1009.2 |
| 20260509023518 | 72 | 135 | 2.0 | 5.0 | 0.00 | 0.52 | 0.52 | 81 | 1009.0 |
| 20260509023037 | 72 | 176 | 1.0 | 5.0 | 0.00 | 0.52 | 0.52 | 81 | 1008.7 |
| 20260509022555 | 73 | 156 | 2.0 | 5.0 | 0.00 | 0.52 | 0.52 | 80 | 1008.7 |
| 20260509022053 | 73 | 188 | 2.0 | 6.0 | 0.00 | 0.52 | 0.52 | 80 | 1008.6 |
| 20260509021531 | 73 | 183 | 2.0 | 6.0 | 0.00 | 0.52 | 0.52 | 80 | 1008.4 |
| 20260509021049 | 73 | 180 | 2.0 | 5.0 | 0.00 | 0.52 | 0.52 | 80 | 1008.2 |
| 20260509020527 | 73 | 186 | 2.0 | 7.0 | 0.00 | 0.52 | 0.52 | 79 | 1008.0 |
| 20260509020025 | 73 | 172 | 3.0 | 6.0 | 0.00 | 0.52 | 0.52 | 79 | 1008.0 |
| 20260509015523 | 73 | 192 | 3.0 | 6.0 | 0.00 | 0.52 | 0.52 | 79 | 1008.1 |
| 20260509015021 | 73 | 186 | 3.0 | 6.0 | 0.00 | 0.52 | 0.52 | 79 | 1008.3 |
| 20260509014519 | 73 | 183 | 3.0 | 7.0 | 0.00 | 0.52 | 0.52 | 78 | 1008.4 |
| 20260509014017 | 73 | 174 | 2.0 | 6.0 | 0.00 | 0.52 | 0.52 | 78 | 1008.6 |
| 20260509013535 | 73 | 155 | 1.0 | 4.0 | 0.00 | 0.52 | 0.52 | 78 | 1008.7 |
| 20260509013032 | 73 | 168 | 1.0 | 4.0 | 0.00 | 0.52 | 0.52 | 77 | 1008.7 |
| 20260509012530 | 74 | 145 | 2.0 | 4.0 | 0.00 | 0.52 | 0.52 | 77 | 1009.0 |
| 20260509012027 | 74 | 172 | 1.0 | 4.0 | 0.00 | 0.52 | 0.52 | 77 | 1009.0 |
| 20260509011524 | 74 | 169 | 1.0 | 3.0 | 0.00 | 0.52 | 0.52 | 77 | 1009.1 |
| 20260509011022 | 74 | 163 | 1.0 | 3.0 | 0.00 | 0.52 | 0.52 | 77 | 1008.9 |
| 20260509010540 | 74 | 190 | 1.0 | 3.0 | 0.00 | 0.52 | 0.52 | 76 | 1008.6 |
| 20260509010018 | 74 | 147 | 1.0 | 4.0 | 0.00 | 0.52 | 0.52 | 76 | 1008.6 |
| 20260509005516 | 74 | 176 | 2.0 | 4.0 | 0.00 | 0.52 | 0.52 | 76 | 1008.6 |
| 20260509005034 | 74 | 181 | 2.0 | 6.0 | 0.00 | 0.52 | 0.52 | 76 | 1008.6 |
| 20260509004532 | 74 | 202 | 2.0 | 5.0 | 0.00 | 0.52 | 0.52 | 75 | 1008.5 |
| 20260509004030 | 74 | 192 | 3.0 | 10.0 | 0.00 | 0.52 | 0.52 | 75 | 1008.5 |
| 20260509003528 | 74 | 196 | 2.0 | 4.0 | 0.00 | 0.52 | 0.52 | 75 | 1008.4 |
| 20260509003025 | 74 | 215 | 2.0 | 7.0 | 0.00 | 0.52 | 0.52 | 75 | 1008.4 |
| 20260509002524 | 74 | 171 | 2.0 | 4.0 | 0.00 | 0.52 | 0.52 | 74 | 1008.3 |
| 20260509002022 | 75 | 188 | 2.0 | 7.0 | 0.00 | 0.52 | 0.52 | 74 | 1008.4 |
| 20260509001520 | 75 | 210 | 2.0 | 5.0 | 0.00 | 0.52 | 0.52 | 74 | 1008.2 |
| 20260509001018 | 75 | 191 | 2.0 | 5.0 | 0.00 | 0.52 | 0.52 | 73 | 1008.2 |
| 20260509000516 | 75 | 176 | 3.0 | 8.0 | 0.00 | 0.52 | 0.52 | 73 | 1008.2 |
| 20260509000034 | 75 | 191 | 2.0 | 5.0 | 0.00 | 0.52 | 0.52 | 72 | 1008.4 |
| 20260508235532 | 75 | 196 | 2.0 | 4.0 | 0.00 | 0.52 | 0.52 | 72 | 1008.4 |
| 20260508235050 | 75 | 207 | 2.0 | 5.0 | 0.00 | 0.52 | 0.52 | 72 | 1008.6 |
| 20260508234527 | 75 | 198 | 3.0 | 6.0 | 0.00 | 0.52 | 0.52 | 72 | 1008.7 |
| 20260508234026 | 75 | 168 | 2.0 | 5.0 | 0.00 | 0.52 | 0.52 | 71 | 1008.8 |
| 20260508233524 | 75 | 161 | 3.0 | 6.0 | 0.00 | 0.52 | 0.52 | 71 | 1008.8 |
| 20260508233022 | 75 | 161 | 2.0 | 6.0 | 0.00 | 0.52 | 0.52 | 71 | 1008.8 |
| 20260508232520 | 76 | 176 | 2.0 | 6.0 | 0.00 | 0.52 | 0.52 | 70 | 1008.7 |
| 20260508232019 | 76 | 187 | 2.0 | 5.0 | 0.00 | 0.52 | 0.52 | 69 | 1008.8 |
| 20260508231537 | 76 | 190 | 3.0 | 7.0 | 0.00 | 0.52 | 0.52 | 69 | 1008.8 |
| 20260508231015 | 76 | 172 | 3.0 | 7.0 | 0.00 | 0.52 | 0.52 | 68 | 1008.6 |
| 20260508230534 | 77 | 160 | 2.0 | 4.0 | 0.00 | 0.52 | 0.52 | 67 | 1008.7 |
| 20260508230031 | 77 | 204 | 3.0 | 6.0 | 0.00 | 0.52 | 0.52 | 67 | 1008.7 |
| 20260508225529 | 77 | 207 | 3.0 | 7.0 | 0.00 | 0.52 | 0.52 | 66 | 1008.8 |
| 20260508225027 | 77 | 187 | 3.0 | 6.0 | 0.00 | 0.52 | 0.52 | 66 | 1008.7 |
| 20260508224525 | 78 | 155 | 3.0 | 6.0 | 0.00 | 0.52 | 0.52 | 65 | 1008.6 |
| 20260508224022 | 78 | 204 | 2.0 | 7.0 | 0.00 | 0.52 | 0.52 | 64 | 1008.8 |
| 20260508223520 | 79 | 158 | 3.0 | 7.0 | 0.00 | 0.52 | 0.52 | 63 | 1008.7 |
| 20260508223019 | 78 | 212 | 4.0 | 9.0 | 0.00 | 0.52 | 0.52 | 64 | 1008.8 |
| 20260508222516 | 78 | 186 | 3.0 | 6.0 | 0.00 | 0.52 | 0.52 | 64 | 1008.8 |
| 20260508222035 | 79 | 187 | 3.0 | 8.0 | 0.00 | 0.52 | 0.52 | 63 | 1008.8 |
| 20260508221533 | 79 | 177 | 3.0 | 9.0 | 0.00 | 0.52 | 0.52 | 62 | 1008.7 |
| 20260508221031 | 79 | 178 | 3.0 | 11.0 | 0.00 | 0.52 | 0.52 | 61 | 1008.8 |
| 20260508220528 | 79 | 162 | 3.0 | 8.0 | 0.00 | 0.52 | 0.52 | 60 | 1008.7 |
| 20260508220026 | 79 | 193 | 2.0 | 5.0 | 0.00 | 0.52 | 0.52 | 61 | 1008.8 |
| 20260508215545 | 79 | 182 | 3.0 | 8.0 | 0.00 | 0.52 | 0.52 | 61 | 1008.8 |
| 20260508215022 | 79 | 175 | 4.0 | 8.0 | 0.00 | 0.52 | 0.52 | 60 | 1008.8 |
| 20260508214520 | 79 | 184 | 3.0 | 7.0 | 0.00 | 0.52 | 0.52 | 59 | 1009.0 |
| 20260508214018 | 79 | 158 | 5.0 | 14.0 | 0.00 | 0.52 | 0.52 | 59 | 1009.0 |
| 20260508213536 | 80 | 192 | 3.0 | 8.0 | 0.00 | 0.52 | 0.52 | 58 | 1009.0 |
| 20260508213034 | 80 | 200 | 3.0 | 7.0 | 0.00 | 0.52 | 0.52 | 58 | 1009.0 |
| 20260508212531 | 79 | 185 | 2.0 | 7.0 | 0.00 | 0.52 | 0.52 | 58 | 1009.1 |
| 20260508212029 | 79 | 184 | 3.0 | 7.0 | 0.00 | 0.52 | 0.52 | 58 | 1009.3 |
| 20260508211527 | 80 | 199 | 3.0 | 8.0 | 0.00 | 0.52 | 0.52 | 58 | 1009.4 |
| 20260508211025 | 79 | 158 | 2.0 | 9.0 | 0.00 | 0.52 | 0.52 | 59 | 1009.4 |
| 20260508210523 | 79 | 194 | 3.0 | 10.0 | 0.00 | 0.52 | 0.52 | 59 | 1009.5 |
| 20260508210021 | 79 | 179 | 3.0 | 8.0 | 0.00 | 0.52 | 0.52 | 59 | 1009.6 |
| 20260508205519 | 79 | 190 | 3.0 | 8.0 | 0.00 | 0.52 | 0.52 | 58 | 1009.8 |
| 20260508205018 | 79 | 209 | 2.0 | 6.0 | 0.00 | 0.52 | 0.52 | 58 | 1009.6 |
| 20260508204516 | 78 | 185 | 3.0 | 6.0 | 0.00 | 0.52 | 0.52 | 59 | 1009.4 |
| 20260508204033 | 78 | 126 | 3.0 | 9.0 | 0.00 | 0.52 | 0.52 | 60 | 1009.5 |
| 20260508203531 | 77 | 110 | 3.0 | 7.0 | 0.00 | 0.52 | 0.52 | 60 | 1009.5 |
| 20260508203029 | 77 | 179 | 3.0 | 7.0 | 0.00 | 0.52 | 0.52 | 60 | 1009.9 |
| 20260508202528 | 76 | 197 | 2.0 | 6.0 | 0.00 | 0.52 | 0.52 | 61 | 1010.5 |
| 20260508202046 | 76 | 178 | 2.0 | 6.0 | 0.00 | 0.52 | 0.52 | 62 | 1010.7 |
| 20260508201524 | 74 | 209 | 3.0 | 8.0 | 0.00 | 0.52 | 0.52 | 64 | 1010.8 |
| 20260508201021 | 74 | 193 | 3.0 | 8.0 | 0.00 | 0.52 | 0.52 | 65 | 1010.9 |
| 20260508200519 | 74 | 202 | 3.0 | 5.0 | 0.00 | 0.52 | 0.52 | 65 | 1011.1 |
| 20260508200017 | 74 | 207 | 3.0 | 6.0 | 0.00 | 0.52 | 0.52 | 65 | 1011.3 |
| 20260508195515 | 75 | 211 | 4.0 | 10.0 | 0.00 | 0.52 | 0.52 | 64 | 1011.3 |
| 20260508195033 | 76 | 213 | 3.0 | 9.0 | 0.00 | 0.52 | 0.52 | 63 | 1011.2 |
| 20260508194551 | 76 | 210 | 3.0 | 7.0 | 0.00 | 0.52 | 0.52 | 62 | 1011.1 |
| 20260508194028 | 76 | 213 | 2.0 | 7.0 | 0.00 | 0.52 | 0.52 | 61 | 1011.1 |
| 20260508193526 | 76 | 210 | 3.0 | 9.0 | 0.00 | 0.52 | 0.52 | 62 | 1011.2 |
| 20260508193024 | 76 | 220 | 4.0 | 8.0 | 0.00 | 0.52 | 0.52 | 61 | 1011.1 |
| 20260508192522 | 76 | 179 | 3.0 | 8.0 | 0.00 | 0.52 | 0.52 | 61 | 1011.1 |
| 20260508192041 | 76 | 201 | 3.0 | 7.0 | 0.00 | 0.52 | 0.52 | 61 | 1011.1 |
| 20260508191518 | 77 | 171 | 3.0 | 7.0 | 0.00 | 0.52 | 0.52 | 61 | 1011.2 |
| 20260508191036 | 76 | 202 | 3.0 | 7.0 | 0.00 | 0.52 | 0.52 | 61 | 1011.2 |
| 20260508190534 | 77 | 201 | 3.0 | 7.0 | 0.00 | 0.52 | 0.52 | 60 | 1011.4 |
| 20260508190032 | 77 | 226 | 3.0 | 6.0 | 0.00 | 0.52 | 0.52 | 60 | 1011.5 |
| 20260508185530 | 78 | 152 | 3.0 | 7.0 | 0.00 | 0.52 | 0.52 | 59 | 1011.3 |
| 20260508185029 | 78 | 147 | 3.0 | 7.0 | 0.00 | 0.52 | 0.52 | 58 | 1011.2 |
| 20260508184527 | 78 | 183 | 2.0 | 6.0 | 0.00 | 0.52 | 0.52 | 58 | 1011.4 |
| 20260508184025 | 77 | 194 | 3.0 | 9.0 | 0.00 | 0.52 | 0.52 | 59 | 1011.5 |
| 20260508183523 | 78 | 213 | 3.0 | 7.0 | 0.00 | 0.52 | 0.52 | 58 | 1011.5 |
| 20260508183021 | 78 | 224 | 2.0 | 5.0 | 0.00 | 0.52 | 0.52 | 58 | 1011.6 |
| 20260508182519 | 78 | 214 | 2.0 | 7.0 | 0.00 | 0.52 | 0.52 | 57 | 1011.7 |
| 20260508182017 | 78 | 216 | 3.0 | 6.0 | 0.00 | 0.52 | 0.52 | 58 | 1011.8 |
| 20260508181515 | 78 | 173 | 2.0 | 6.0 | 0.00 | 0.52 | 0.52 | 58 | 1011.8 |
| 20260508181033 | 77 | 179 | 2.0 | 6.0 | 0.00 | 0.52 | 0.52 | 59 | 1011.8 |
| 20260508180531 | 77 | 198 | 2.0 | 5.0 | 0.00 | 0.52 | 0.52 | 59 | 1012.0 |
| 20260508180029 | 77 | 198 | 3.0 | 7.0 | 0.00 | 0.52 | 0.52 | 59 | 1012.2 |
| 20260508175527 | 76 | 219 | 4.0 | 9.0 | 0.00 | 0.52 | 0.52 | 59 | 1012.2 |
| 20260508175025 | 78 | 208 | 3.0 | 7.0 | 0.00 | 0.52 | 0.52 | 57 | 1012.2 |
| 20260508174523 | 78 | 196 | 3.0 | 7.0 | 0.00 | 0.52 | 0.52 | 57 | 1012.2 |
| 20260508174021 | 77 | 143 | 3.0 | 7.0 | 0.00 | 0.52 | 0.52 | 57 | 1012.3 |
| 20260508173519 | 77 | 191 | 3.0 | 7.0 | 0.00 | 0.52 | 0.52 | 58 | 1012.4 |
| 20260508173016 | 77 | 156 | 3.0 | 7.0 | 0.00 | 0.52 | 0.52 | 57 | 1012.3 |
| 20260508172534 | 77 | 181 | 3.0 | 8.0 | 0.00 | 0.52 | 0.52 | 57 | 1012.5 |
| 20260508172032 | 76 | 157 | 4.0 | 10.0 | 0.00 | 0.52 | 0.52 | 58 | 1012.6 |
| 20260508171530 | 76 | 155 | 4.0 | 9.0 | 0.00 | 0.52 | 0.52 | 59 | 1012.7 |
| 20260508171028 | 75 | 195 | 3.0 | 7.0 | 0.00 | 0.52 | 0.52 | 60 | 1012.9 |
| 20260508170526 | 74 | 210 | 3.0 | 8.0 | 0.00 | 0.52 | 0.52 | 62 | 1012.8 |
| 20260508170044 | 75 | 216 | 4.0 | 13.0 | 0.00 | 0.52 | 0.52 | 61 | 1012.8 |
| 20260508165522 | 76 | 213 | 3.0 | 9.0 | 0.00 | 0.52 | 0.52 | 60 | 1012.9 |
| 20260508165040 | 75 | 191 | 2.0 | 7.0 | 0.00 | 0.52 | 0.52 | 61 | 1013.1 |
| 20260508164539 | 74 | 211 | 3.0 | 6.0 | 0.00 | 0.52 | 0.52 | 63 | 1013.2 |
| 20260508164036 | 74 | 216 | 4.0 | 9.0 | 0.00 | 0.52 | 0.52 | 63 | 1013.3 |
| 20260508163534 | 74 | 178 | 3.0 | 5.0 | 0.00 | 0.52 | 0.52 | 63 | 1013.2 |
| 20260508163053 | 73 | 175 | 2.0 | 6.0 | 0.00 | 0.52 | 0.52 | 64 | 1013.3 |
| 20260508162530 | 73 | 146 | 3.0 | 5.0 | 0.00 | 0.52 | 0.52 | 65 | 1013.6 |
| 20260508162028 | 73 | 181 | 3.0 | 9.0 | 0.00 | 0.52 | 0.52 | 65 | 1013.5 |
| 20260508161526 | 73 | 157 | 2.0 | 6.0 | 0.00 | 0.52 | 0.52 | 64 | 1013.5 |
| 20260508161044 | 72 | 155 | 2.0 | 6.0 | 0.00 | 0.52 | 0.52 | 64 | 1013.7 |
| 20260508160521 | 72 | 178 | 2.0 | 5.0 | 0.00 | 0.52 | 0.52 | 64 | 1013.8 |
| 20260508160039 | 72 | 202 | 2.0 | 4.0 | 0.00 | 0.52 | 0.52 | 64 | 1014.0 |
| 20260508155515 | 72 | 200 | 2.0 | 4.0 | 0.00 | 0.52 | 0.52 | 65 | 1013.9 |
| 20260508155032 | 71 | 172 | 2.0 | 4.0 | 0.00 | 0.52 | 0.52 | 64 | 1013.7 |
| 20260508154548 | 71 | 140 | 3.0 | 7.0 | 0.00 | 0.52 | 0.52 | 64 | 1013.8 |
| 20260508154026 | 71 | 185 | 2.0 | 5.0 | 0.00 | 0.52 | 0.52 | 65 | 1013.9 |
| 20260508153523 | 70 | 185 | 2.0 | 5.0 | 0.00 | 0.52 | 0.52 | 64 | 1013.9 |
| 20260508153020 | 70 | 168 | 2.0 | 5.0 | 0.00 | 0.52 | 0.52 | 64 | 1014.0 |
| 20260508152536 | 70 | 190 | 2.0 | 4.0 | 0.00 | 0.52 | 0.52 | 64 | 1014.1 |
| 20260508152054 | 70 | 171 | 3.0 | 5.0 | 0.00 | 0.52 | 0.52 | 65 | 1014.1 |
| 20260508151530 | 70 | 187 | 2.0 | 4.0 | 0.00 | 0.52 | 0.52 | 66 | 1014.2 |
| 20260508151027 | 69 | 187 | 2.0 | 5.0 | 0.00 | 0.52 | 0.52 | 66 | 1014.2 |
| 20260508150524 | 69 | 221 | 1.0 | 4.0 | 0.00 | 0.52 | 0.52 | 67 | 1014.4 |
| 20260508150021 | 68 | 139 | 2.0 | 5.0 | 0.00 | 0.52 | 0.52 | 68 | 1014.3 |
| 20260508145557 | 68 | 167 | 1.0 | 4.0 | 0.00 | 0.52 | 0.52 | 68 | 1014.4 |
| 20260508145034 | 67 | 158 | 2.0 | 5.0 | 0.00 | 0.52 | 0.52 | 69 | 1014.4 |
| 20260508144531 | 67 | 170 | 2.0 | 5.0 | 0.00 | 0.52 | 0.52 | 70 | 1014.5 |
| 20260508144048 | 67 | 70 | 2.0 | 4.0 | 0.00 | 0.52 | 0.52 | 72 | 1014.5 |
| 20260508143525 | 66 | 176 | 2.0 | 4.0 | 0.00 | 0.52 | 0.52 | 73 | 1014.4 |
| 20260508143022 | 66 | 186 | 2.0 | 5.0 | 0.00 | 0.52 | 0.52 | 74 | 1014.5 |
| 20260508142517 | 66 | 221 | 2.0 | 5.0 | 0.00 | 0.52 | 0.52 | 74 | 1014.5 |
| 20260508142035 | 66 | 182 | 2.0 | 4.0 | 0.00 | 0.52 | 0.52 | 74 | 1014.6 |
| 20260508141532 | 65 | 205 | 2.0 | 4.0 | 0.00 | 0.52 | 0.52 | 76 | 1014.7 |
| 20260508141049 | 65 | 203 | 2.0 | 5.0 | 0.00 | 0.52 | 0.52 | 77 | 1014.7 |
| 20260508140526 | 64 | 191 | 2.0 | 4.0 | 0.00 | 0.52 | 0.52 | 78 | 1014.5 |
| 20260508140025 | 64 | 170 | 2.0 | 5.0 | 0.00 | 0.52 | 0.52 | 80 | 1014.5 |
| 20260508135520 | 64 | 187 | 1.0 | 4.0 | 0.00 | 0.52 | 0.52 | 81 | 1014.4 |
| 20260508135017 | 64 | 202 | 2.0 | 4.0 | 0.00 | 0.52 | 0.52 | 81 | 1014.5 |
| 20260508134555 | 63 | 199 | 2.0 | 5.0 | 0.00 | 0.52 | 0.52 | 82 | 1014.4 |
| 20260508134031 | 63 | 182 | 2.0 | 5.0 | 0.00 | 0.52 | 0.52 | 82 | 1014.4 |
| 20260508133528 | 63 | 164 | 2.0 | 5.0 | 0.00 | 0.52 | 0.52 | 85 | 1014.3 |
| 20260508133025 | 63 | 160 | 1.0 | 3.0 | 0.01 | 0.52 | 0.52 | 87 | 1014.5 |
| 20260508132522 | 62 | 172 | 2.0 | 6.0 | 0.02 | 0.52 | 0.52 | 89 | 1014.5 |
| 20260508132039 | 62 | 165 | 2.0 | 4.0 | 0.02 | 0.52 | 0.52 | 90 | 1014.5 |
| 20260508131515 | 62 | 157 | 2.0 | 4.0 | 0.02 | 0.52 | 0.52 | 92 | 1014.4 |
| 20260508131032 | 61 | 151 | 2.0 | 4.0 | 0.02 | 0.52 | 0.52 | 93 | 1014.3 |
| 20260508130529 | 61 | 192 | 1.0 | 4.0 | 0.02 | 0.52 | 0.52 | 93 | 1014.4 |
| 20260508130026 | 61 | 218 | 1.0 | 3.0 | 0.02 | 0.52 | 0.52 | 93 | 1014.5 |
| 20260508125523 | 60 | 203 | 1.0 | 3.0 | 0.02 | 0.52 | 0.52 | 94 | 1014.6 |
| 20260508125020 | 60 | 200 | 1.0 | 3.0 | 0.07 | 0.52 | 0.52 | 94 | 1014.7 |
| 20260508124516 | 60 | 109 | 1.0 | 2.0 | 0.16 | 0.52 | 0.52 | 94 | 1014.6 |
| 20260508124034 | 60 | 186 | 1.0 | 4.0 | 0.17 | 0.52 | 0.52 | 94 | 1014.7 |
| 20260508123531 | 60 | 238 | 1.0 | 2.0 | 0.17 | 0.52 | 0.52 | 94 | 1014.9 |
| 20260508123209 | 60 | 277 | 0.0 | 3.0 | 0.16 | 0.51 | 0.51 | 93 | 1014.9 |
| 20260508122525 | 60 | 297 | 1.0 | 3.0 | 0.15 | 0.50 | 0.50 | 93 | 1014.7 |
| 20260508122021 | 60 | 117 | 2.0 | 4.0 | 0.15 | 0.50 | 0.50 | 93 | 1014.5 |
| 20260508121518 | 60 | 147 | 0.0 | 2.0 | 0.15 | 0.50 | 0.50 | 93 | 1014.7 |
| 20260508121035 | 60 | 216 | 0.0 | 2.0 | 0.15 | 0.50 | 0.50 | 92 | 1014.8 |
| 20260508120532 | 60 | 231 | 1.0 | 4.0 | 0.15 | 0.50 | 0.50 | 92 | 1014.7 |
| 20260508120029 | 60 | 175 | 1.0 | 4.0 | 0.15 | 0.50 | 0.50 | 92 | 1014.6 |
| 20260508115526 | 60 | 136 | 3.0 | 7.0 | 0.15 | 0.50 | 0.50 | 91 | 1014.4 |
| 20260508115024 | 61 | 122 | 6.0 | 11.0 | 0.10 | 0.45 | 0.45 | 89 | 1014.6 |
| 20260508114520 | 61 | 218 | 4.0 | 7.0 | 0.00 | 0.35 | 0.35 | 90 | 1015.6 |
| 20260508114017 | 61 | 120 | 2.0 | 4.0 | 0.00 | 0.35 | 0.35 | 91 | 1014.5 |
| 20260508113554 | 61 | 112 | 2.0 | 4.0 | 0.00 | 0.35 | 0.35 | 90 | 1014.6 |
| 20260508113031 | 60 | 98 | 1.0 | 3.0 | 0.00 | 0.35 | 0.35 | 90 | 1014.7 |
| 20260508112528 | 60 | 135 | 0.0 | 2.0 | 0.00 | 0.35 | 0.35 | 91 | 1014.7 |
| 20260508112045 | 60 | 86 | 1.0 | 2.0 | 0.02 | 0.35 | 0.35 | 91 | 1014.7 |
| 20260508111541 | 60 | 94 | 1.0 | 2.0 | 0.10 | 0.35 | 0.35 | 91 | 1014.5 |
| 20260508111018 | 60 | 143 | 2.0 | 3.0 | 0.13 | 0.35 | 0.35 | 92 | 1014.2 |
| 20260508110555 | 60 | 112 | 1.0 | 4.0 | 0.13 | 0.35 | 0.35 | 92 | 1014.3 |
| 20260508110032 | 60 | 137 | 1.0 | 4.0 | 0.13 | 0.35 | 0.35 | 91 | 1014.3 |
| 20260508105529 | 60 | 113 | 1.0 | 4.0 | 0.13 | 0.35 | 0.35 | 91 | 1014.2 |
| 20260508105026 | 60 | 84 | 1.0 | 3.0 | 0.13 | 0.35 | 0.35 | 91 | 1014.4 |
| 20260508104523 | 60 | 11 | 1.0 | 3.0 | 0.13 | 0.35 | 0.35 | 91 | 1014.5 |
| 20260508104019 | 60 | 43 | 2.0 | 4.0 | 0.13 | 0.35 | 0.35 | 91 | 1014.3 |
| 20260508103517 | 60 | 67 | 2.0 | 4.0 | 0.13 | 0.35 | 0.35 | 91 | 1014.1 |
| 20260508103033 | 60 | 96 | 2.0 | 5.0 | 0.14 | 0.35 | 0.35 | 91 | 1014.0 |
| 20260508102530 | 61 | 99 | 3.0 | 5.0 | 0.14 | 0.35 | 0.35 | 90 | 1014.0 |
| 20260508102026 | 61 | 115 | 2.0 | 4.0 | 0.12 | 0.33 | 0.33 | 89 | 1014.5 |